< Typhoon 197516 1975 Season Typhoon 197518 >
Typhoon 197517 (GRACE)
General InformationTrack Information on Google Maps || Disaster Info.ResourceGoogle EarthGE AnimationAtom FeedGeoJSON
Detalied Best Track (Time Zone = UTC)
Year Month Day Hour Lat. Long. Pressure (hPa) Wind (kt) Class Image Chart
1975 10 23 00 24.0 129.0 1008 0 2 -- Chart
1975 10 23 06 23.0 129.6 1008 0 2 -- Chart
1975 10 23 12 22.0 130.0 1008 0 2 -- Chart
1975 10 23 18 21.0 130.3 1006 0 2 -- Chart
1975 10 24 00 20.0 130.0 1006 0 2 -- Chart
1975 10 24 06 19.5 129.7 1004 0 2 -- Chart
1975 10 24 12 19.0 129.3 1002 0 2 -- Chart
1975 10 24 18 18.6 129.0 1000 0 2 -- Chart
1975 10 25 00 18.2 128.5 994 0 9 -- Chart
1975 10 25 06 18.0 128.5 994 0 9 -- Chart
1975 10 25 12 18.2 128.8 996 0 9 -- Chart
1975 10 25 18 19.0 129.4 998 0 9 -- Chart
1975 10 26 00 19.0 128.5 1002 0 2 -- Chart
1975 10 26 06 18.9 128.7 1004 0 2 -- Chart
1975 10 26 12 18.8 128.8 1004 0 2 -- Chart
1975 10 26 18 19.0 129.0 1006 0 2 -- Chart
1975 10 27 00 19.0 130.0 1006 0 2 -- Chart
1975 10 27 06 18.5 131.0 1004 0 2 -- Chart
1975 10 27 12 18.0 132.0 1002 0 2 -- Chart
1975 10 27 18 18.0 131.5 1002 0 2 -- Chart
1975 10 28 00 18.0 131.0 1002 0 2 -- Chart
1975 10 28 06 18.0 130.0 1002 0 2 -- Chart
1975 10 28 12 17.7 129.3 1002 0 2 -- Chart
1975 10 28 18 17.3 128.5 1002 0 2 -- Chart
1975 10 29 00 17.0 127.7 1002 0 2 -- Chart
1975 10 29 06 17.5 128.2 1000 0 2 -- Chart
1975 10 29 12 18.0 128.7 1000 0 2 -- Chart
1975 10 29 18 18.1 128.7 1000 0 2 -- Chart
1975 10 30 00 18.2 128.7 1000 0 9 -- Chart
1975 10 30 06 18.6 129.0 996 0 9 -- Chart
1975 10 30 12 19.8 129.6 992 0 9 -- Chart
1975 10 30 18 21.1 129.7 985 0 9 -- Chart
1975 10 31 00 21.5 130.0 985 0 9 -- Chart
1975 10 31 06 22.3 130.8 985 0 9 -- Chart
1975 10 31 12 23.3 131.7 990 0 9 -- Chart
1975 10 31 18 23.8 132.5 990 0 9 -- Chart
1975 11 1 00 24.4 133.5 990 0 9 -- Chart
1975 11 1 06 25.0 134.6 990 0 9 -- Chart
1975 11 1 12 25.8 136.3 995 0 9 -- Chart
1975 11 1 18 26.8 138.3 995 0 9 -- Chart
1975 11 2 00 27.4 141.0 995 0 9 -- Chart
1975 11 2 06 29.0 145.0 1002 0 6 -- Chart
1975 11 2 12 30.0 148.0 1002 0 6 -- Chart
1975 11 2 18 31.6 152.4 1004 0 6 -- Chart
1975 11 3 00 34.0 156.0 1006 0 6 -- Chart
1975 11 3 06 36.0 159.0 1000 0 6 -- Chart
1975 11 3 12 38.0 163.0 1000 0 6 -- Chart
1975 11 3 18 39.5 167.0 1000 0 6 -- Chart
1975 11 4 00 41.5 171.4 1000 0 6 -- Chart
1975 11 4 06 42.7 176.0 1000 0 6 -- Chart
1975 11 4 12 45.0 184.0 1000 0 6 -- Chart
Japan Meteorological Agency Best Track Data | Correction Date : 1989-06-01
< Typhoon 197516 1975 Season Typhoon 197518 >

Help